sensor_id;sensor_type;location;lat;lon;timestamp;temperature;humidity
69595;DHT22;56800;52.142;5.364;2023-07-08T00:01:18;20.90;53.00
69595;DHT22;56800;52.142;5.364;2023-07-08T00:03:45;20.80;53.10
69595;DHT22;56800;52.142;5.364;2023-07-08T00:06:26;20.80;53.20
69595;DHT22;56800;52.142;5.364;2023-07-08T00:08:53;20.80;53.20
69595;DHT22;56800;52.142;5.364;2023-07-08T00:11:20;20.70;53.20
69595;DHT22;56800;52.142;5.364;2023-07-08T00:13:47;20.70;53.40
69595;DHT22;56800;52.142;5.364;2023-07-08T00:16:16;20.70;53.60
69595;DHT22;56800;52.142;5.364;2023-07-08T00:18:45;20.70;54.60
69595;DHT22;56800;52.142;5.364;2023-07-08T00:21:15;20.60;53.30
69595;DHT22;56800;52.142;5.364;2023-07-08T00:23:49;20.60;53.20
69595;DHT22;56800;52.142;5.364;2023-07-08T00:26:28;20.60;53.40
69595;DHT22;56800;52.142;5.364;2023-07-08T00:28:56;20.50;53.50
69595;DHT22;56800;52.142;5.364;2023-07-08T00:31:24;20.50;53.40
69595;DHT22;56800;52.142;5.364;2023-07-08T00:33:53;20.50;53.40
69595;DHT22;56800;52.142;5.364;2023-07-08T00:36:26;20.50;53.50
69595;DHT22;56800;52.142;5.364;2023-07-08T00:38:53;20.50;53.70
69595;DHT22;56800;52.142;5.364;2023-07-08T00:41:35;20.40;53.70
69595;DHT22;56800;52.142;5.364;2023-07-08T00:44:03;20.40;53.70
69595;DHT22;56800;52.142;5.364;2023-07-08T00:51:29;20.30;53.80
69595;DHT22;56800;52.142;5.364;2023-07-08T00:53:56;20.30;53.80
69595;DHT22;56800;52.142;5.364;2023-07-08T00:56:31;20.30;53.90
69595;DHT22;56800;52.142;5.364;2023-07-08T01:01:49;20.30;54.10
69595;DHT22;56800;52.142;5.364;2023-07-08T01:04:34;20.20;54.10
69595;DHT22;56800;52.142;5.364;2023-07-08T01:07:04;20.20;54.20
69595;DHT22;56800;52.142;5.364;2023-07-08T01:09:43;20.10;54.20
69595;DHT22;56800;52.142;5.364;2023-07-08T01:12:21;20.10;54.60
69595;DHT22;56800;52.142;5.364;2023-07-08T01:14:49;20.10;54.70
69595;DHT22;56800;52.142;5.364;2023-07-08T01:17:21;20.00;54.60
69595;DHT22;56800;52.142;5.364;2023-07-08T01:19:49;20.00;54.80
69595;DHT22;56800;52.142;5.364;2023-07-08T01:22:15;20.00;54.90
69595;DHT22;56800;52.142;5.364;2023-07-08T01:24:43;20.00;55.10
69595;DHT22;56800;52.142;5.364;2023-07-08T01:27:14;20.00;55.50
69595;DHT22;56800;52.142;5.364;2023-07-08T01:29:42;19.90;55.50
69595;DHT22;56800;52.142;5.364;2023-07-08T01:32:13;19.90;55.50
69595;DHT22;56800;52.142;5.364;2023-07-08T01:34:46;19.90;55.60
69595;DHT22;56800;52.142;5.364;2023-07-08T01:37:49;19.90;55.60
69595;DHT22;56800;52.142;5.364;2023-07-08T01:40:37;19.80;55.80
69595;DHT22;56800;52.142;5.364;2023-07-08T01:43:11;19.80;56.00
69595;DHT22;56800;52.142;5.364;2023-07-08T01:45:41;19.70;57.10
69595;DHT22;56800;52.142;5.364;2023-07-08T01:48:13;19.70;56.40
69595;DHT22;56800;52.142;5.364;2023-07-08T01:51:03;19.70;56.60
69595;DHT22;56800;52.142;5.364;2023-07-08T01:53:36;19.60;57.40
69595;DHT22;56800;52.142;5.364;2023-07-08T01:56:04;19.60;57.60
69595;DHT22;56800;52.142;5.364;2023-07-08T01:58:31;19.60;58.00
69595;DHT22;56800;52.142;5.364;2023-07-08T02:00:58;19.60;58.00
69595;DHT22;56800;52.142;5.364;2023-07-08T02:03:26;19.50;58.00
69595;DHT22;56800;52.142;5.364;2023-07-08T02:05:52;19.50;57.90
69595;DHT22;56800;52.142;5.364;2023-07-08T02:08:20;19.40;57.80
69595;DHT22;56800;52.142;5.364;2023-07-08T02:10:50;19.40;57.90
69595;DHT22;56800;52.142;5.364;2023-07-08T02:13:19;19.40;58.10
69595;DHT22;56800;52.142;5.364;2023-07-08T02:15:46;19.30;58.10
69595;DHT22;56800;52.142;5.364;2023-07-08T02:18:13;19.30;58.20
69595;DHT22;56800;52.142;5.364;2023-07-08T02:20:39;19.30;58.50
69595;DHT22;56800;52.142;5.364;2023-07-08T02:23:09;19.20;58.40
69595;DHT22;56800;52.142;5.364;2023-07-08T02:25:36;19.20;58.60
69595;DHT22;56800;52.142;5.364;2023-07-08T02:28:03;19.20;59.00
69595;DHT22;56800;52.142;5.364;2023-07-08T02:30:30;19.20;59.10
69595;DHT22;56800;52.142;5.364;2023-07-08T02:32:56;19.10;59.10
69595;DHT22;56800;52.142;5.364;2023-07-08T02:35:26;19.10;59.40
69595;DHT22;56800;52.142;5.364;2023-07-08T02:37:53;19.10;59.70
69595;DHT22;56800;52.142;5.364;2023-07-08T02:40:21;19.00;59.70
69595;DHT22;56800;52.142;5.364;2023-07-08T02:42:48;19.00;59.90
69595;DHT22;56800;52.142;5.364;2023-07-08T02:45:16;19.00;60.70
69595;DHT22;56800;52.142;5.364;2023-07-08T02:47:43;19.00;60.00
69595;DHT22;56800;52.142;5.364;2023-07-08T02:50:11;19.00;60.10
69595;DHT22;56800;52.142;5.364;2023-07-08T02:52:38;18.90;60.10
69595;DHT22;56800;52.142;5.364;2023-07-08T02:55:05;18.90;60.10
69595;DHT22;56800;52.142;5.364;2023-07-08T02:57:32;18.90;60.20
69595;DHT22;56800;52.142;5.364;2023-07-08T02:59:59;18.80;60.20
69595;DHT22;56800;52.142;5.364;2023-07-08T03:02:26;18.80;60.10
69595;DHT22;56800;52.142;5.364;2023-07-08T03:04:53;18.80;60.40
69595;DHT22;56800;52.142;5.364;2023-07-08T03:07:20;18.80;60.60
69595;DHT22;56800;52.142;5.364;2023-07-08T03:09:47;18.80;60.70
69595;DHT22;56800;52.142;5.364;2023-07-08T03:12:14;18.70;60.60
69595;DHT22;56800;52.142;5.364;2023-07-08T03:14:41;18.70;60.80
69595;DHT22;56800;52.142;5.364;2023-07-08T03:17:07;18.70;61.10
69595;DHT22;56800;52.142;5.364;2023-07-08T03:19:34;18.70;61.30
69595;DHT22;56800;52.142;5.364;2023-07-08T03:22:01;18.70;61.60
69595;DHT22;56800;52.142;5.364;2023-07-08T03:24:31;18.70;61.80
69595;DHT22;56800;52.142;5.364;2023-07-08T03:26:58;18.60;61.90
69595;DHT22;56800;52.142;5.364;2023-07-08T03:29:27;18.60;62.10
69595;DHT22;56800;52.142;5.364;2023-07-08T03:31:53;18.60;62.00
69595;DHT22;56800;52.142;5.364;2023-07-08T03:34:20;18.60;62.10
69595;DHT22;56800;52.142;5.364;2023-07-08T03:36:51;18.60;62.20
69595;DHT22;56800;52.142;5.364;2023-07-08T03:39:22;18.50;62.30
69595;DHT22;56800;52.142;5.364;2023-07-08T03:41:52;18.50;62.40
69595;DHT22;56800;52.142;5.364;2023-07-08T03:44:19;18.40;63.20
69595;DHT22;56800;52.142;5.364;2023-07-08T03:46:48;18.40;62.30
69595;DHT22;56800;52.142;5.364;2023-07-08T03:49:20;18.40;62.00
69595;DHT22;56800;52.142;5.364;2023-07-08T03:51:50;18.30;62.00
69595;DHT22;56800;52.142;5.364;2023-07-08T03:54:18;18.30;62.10
69595;DHT22;56800;52.142;5.364;2023-07-08T03:56:45;18.30;62.20
69595;DHT22;56800;52.142;5.364;2023-07-08T03:59:12;18.30;62.20
69595;DHT22;56800;52.142;5.364;2023-07-08T04:01:38;18.30;62.20
69595;DHT22;56800;52.142;5.364;2023-07-08T04:04:11;18.30;62.40
69595;DHT22;56800;52.142;5.364;2023-07-08T04:06:39;18.30;62.60
69595;DHT22;56800;52.142;5.364;2023-07-08T04:09:05;18.20;62.60
69595;DHT22;56800;52.142;5.364;2023-07-08T04:11:33;18.20;62.50
69595;DHT22;56800;52.142;5.364;2023-07-08T04:14:00;18.20;62.50
69595;DHT22;56800;52.142;5.364;2023-07-08T04:16:42;18.10;62.60
69595;DHT22;56800;52.142;5.364;2023-07-08T04:19:15;18.20;62.80
69595;DHT22;56800;52.142;5.364;2023-07-08T04:21:44;18.20;63.00
69595;DHT22;56800;52.142;5.364;2023-07-08T04:24:12;18.20;63.00
69595;DHT22;56800;52.142;5.364;2023-07-08T04:26:40;18.20;63.20
69595;DHT22;56800;52.142;5.364;2023-07-08T04:29:17;18.20;63.40
69595;DHT22;56800;52.142;5.364;2023-07-08T04:31:44;18.20;63.60
69595;DHT22;56800;52.142;5.364;2023-07-08T04:34:13;18.20;63.50
69595;DHT22;56800;52.142;5.364;2023-07-08T04:36:39;18.20;63.50
69595;DHT22;56800;52.142;5.364;2023-07-08T04:39:07;18.20;63.40
69595;DHT22;56800;52.142;5.364;2023-07-08T04:41:37;18.20;63.50
69595;DHT22;56800;52.142;5.364;2023-07-08T04:44:08;18.20;63.60
69595;DHT22;56800;52.142;5.364;2023-07-08T04:46:39;18.20;63.70
69595;DHT22;56800;52.142;5.364;2023-07-08T04:49:07;18.20;64.00
69595;DHT22;56800;52.142;5.364;2023-07-08T04:51:36;18.20;64.00
69595;DHT22;56800;52.142;5.364;2023-07-08T04:54:03;18.20;64.10
69595;DHT22;56800;52.142;5.364;2023-07-08T04:56:37;18.20;65.00
69595;DHT22;56800;52.142;5.364;2023-07-08T04:59:04;18.10;64.40
69595;DHT22;56800;52.142;5.364;2023-07-08T05:01:31;18.10;65.30
69595;DHT22;56800;52.142;5.364;2023-07-08T05:03:59;18.20;64.70
69595;DHT22;56800;52.142;5.364;2023-07-08T05:06:26;18.20;64.70
69595;DHT22;56800;52.142;5.364;2023-07-08T05:08:53;18.20;64.80
69595;DHT22;56800;52.142;5.364;2023-07-08T05:11:20;18.20;64.90
69595;DHT22;56800;52.142;5.364;2023-07-08T05:13:47;18.20;65.00
69595;DHT22;56800;52.142;5.364;2023-07-08T05:16:13;18.20;65.80
69595;DHT22;56800;52.142;5.364;2023-07-08T05:18:40;18.30;65.10
69595;DHT22;56800;52.142;5.364;2023-07-08T05:21:09;18.20;65.00
69595;DHT22;56800;52.142;5.364;2023-07-08T05:23:36;18.30;65.10
69595;DHT22;56800;52.142;5.364;2023-07-08T05:26:04;18.30;64.90
69595;DHT22;56800;52.142;5.364;2023-07-08T05:28:31;18.30;65.00
69595;DHT22;56800;52.142;5.364;2023-07-08T05:30:58;18.30;65.10
69595;DHT22;56800;52.142;5.364;2023-07-08T05:33:28;18.40;65.10
69595;DHT22;56800;52.142;5.364;2023-07-08T05:35:55;18.40;65.20
69595;DHT22;56800;52.142;5.364;2023-07-08T05:38:21;18.40;65.10
69595;DHT22;56800;52.142;5.364;2023-07-08T05:40:49;18.50;65.90
69595;DHT22;56800;52.142;5.364;2023-07-08T05:43:17;18.50;65.20
69595;DHT22;56800;52.142;5.364;2023-07-08T05:45:44;18.60;65.30
69595;DHT22;56800;52.142;5.364;2023-07-08T05:48:23;18.60;65.30
69595;DHT22;56800;52.142;5.364;2023-07-08T05:50:50;18.60;65.40
69595;DHT22;56800;52.142;5.364;2023-07-08T05:53:18;18.70;65.30
69595;DHT22;56800;52.142;5.364;2023-07-08T05:55:47;18.80;65.30
69595;DHT22;56800;52.142;5.364;2023-07-08T05:58:14;18.80;65.30
69595;DHT22;56800;52.142;5.364;2023-07-08T06:00:56;18.80;65.40
69595;DHT22;56800;52.142;5.364;2023-07-08T06:03:27;18.90;65.40
69595;DHT22;56800;52.142;5.364;2023-07-08T06:05:54;18.90;65.20
69595;DHT22;56800;52.142;5.364;2023-07-08T06:08:21;19.00;65.30
69595;DHT22;56800;52.142;5.364;2023-07-08T06:10:49;19.00;65.40
69595;DHT22;56800;52.142;5.364;2023-07-08T06:13:17;19.10;65.40
69595;DHT22;56800;52.142;5.364;2023-07-08T06:15:44;19.10;65.30
69595;DHT22;56800;52.142;5.364;2023-07-08T06:18:10;19.20;65.20
69595;DHT22;56800;52.142;5.364;2023-07-08T06:20:37;19.30;65.30
69595;DHT22;56800;52.142;5.364;2023-07-08T06:23:04;19.30;65.30
69595;DHT22;56800;52.142;5.364;2023-07-08T06:25:32;19.40;65.40
69595;DHT22;56800;52.142;5.364;2023-07-08T06:27:59;19.40;65.30
69595;DHT22;56800;52.142;5.364;2023-07-08T06:30:26;19.50;65.30
69595;DHT22;56800;52.142;5.364;2023-07-08T06:32:53;19.60;65.20
69595;DHT22;56800;52.142;5.364;2023-07-08T06:35:20;19.60;65.80
69595;DHT22;56800;52.142;5.364;2023-07-08T06:37:46;19.70;65.10
69595;DHT22;56800;52.142;5.364;2023-07-08T06:40:13;19.80;65.30
69595;DHT22;56800;52.142;5.364;2023-07-08T06:42:40;19.80;65.00
69595;DHT22;56800;52.142;5.364;2023-07-08T06:45:07;19.90;64.80
69595;DHT22;56800;52.142;5.364;2023-07-08T06:47:35;20.00;65.60
69595;DHT22;56800;52.142;5.364;2023-07-08T06:50:03;20.00;64.90
69595;DHT22;56800;52.142;5.364;2023-07-08T06:52:30;20.10;64.80
69595;DHT22;56800;52.142;5.364;2023-07-08T06:55:02;20.20;64.70
69595;DHT22;56800;52.142;5.364;2023-07-08T06:57:31;20.30;65.10
69595;DHT22;56800;52.142;5.364;2023-07-08T06:59:58;20.40;65.00
69595;DHT22;56800;52.142;5.364;2023-07-08T07:02:27;20.40;65.20
69595;DHT22;56800;52.142;5.364;2023-07-08T07:04:54;20.50;64.30
69595;DHT22;56800;52.142;5.364;2023-07-08T07:07:22;20.60;64.40
69595;DHT22;56800;52.142;5.364;2023-07-08T07:09:48;20.70;64.70
69595;DHT22;56800;52.142;5.364;2023-07-08T07:12:15;20.80;64.80
69595;DHT22;56800;52.142;5.364;2023-07-08T07:14:42;20.90;64.50
69595;DHT22;56800;52.142;5.364;2023-07-08T07:17:11;21.00;64.20
69595;DHT22;56800;52.142;5.364;2023-07-08T07:19:38;21.10;63.70
69595;DHT22;56800;52.142;5.364;2023-07-08T07:22:05;21.20;63.10
69595;DHT22;56800;52.142;5.364;2023-07-08T07:24:32;21.30;63.00
69595;DHT22;56800;52.142;5.364;2023-07-08T07:26:59;21.40;62.50
69595;DHT22;56800;52.142;5.364;2023-07-08T07:29:26;21.50;62.10
69595;DHT22;56800;52.142;5.364;2023-07-08T07:31:52;21.60;62.30
69595;DHT22;56800;52.142;5.364;2023-07-08T07:34:21;21.70;62.60
69595;DHT22;56800;52.142;5.364;2023-07-08T07:36:48;21.80;62.40
69595;DHT22;56800;52.142;5.364;2023-07-08T07:39:14;21.90;61.60
69595;DHT22;56800;52.142;5.364;2023-07-08T07:41:41;22.00;61.60
69595;DHT22;56800;52.142;5.364;2023-07-08T07:44:08;22.10;62.00
69595;DHT22;56800;52.142;5.364;2023-07-08T07:46:34;22.20;61.30
69595;DHT22;56800;52.142;5.364;2023-07-08T07:49:01;22.30;61.10
69595;DHT22;56800;52.142;5.364;2023-07-08T07:51:28;22.40;60.40
69595;DHT22;56800;52.142;5.364;2023-07-08T07:53:55;22.60;60.80
69595;DHT22;56800;52.142;5.364;2023-07-08T07:56:21;22.70;61.30
69595;DHT22;56800;52.142;5.364;2023-07-08T07:58:51;22.80;61.30
69595;DHT22;56800;52.142;5.364;2023-07-08T08:01:18;22.80;60.10
69595;DHT22;56800;52.142;5.364;2023-07-08T08:03:46;22.90;59.50
69595;DHT22;56800;52.142;5.364;2023-07-08T08:06:13;23.00;59.70
69595;DHT22;56800;52.142;5.364;2023-07-08T08:08:40;23.10;59.40
69595;DHT22;56800;52.142;5.364;2023-07-08T08:11:06;23.20;58.70
69595;DHT22;56800;52.142;5.364;2023-07-08T08:13:33;23.30;57.90
69595;DHT22;56800;52.142;5.364;2023-07-08T08:16:00;23.40;57.60
69595;DHT22;56800;52.142;5.364;2023-07-08T08:18:27;23.50;57.10
69595;DHT22;56800;52.142;5.364;2023-07-08T08:20:54;23.60;56.80
69595;DHT22;56800;52.142;5.364;2023-07-08T08:23:21;23.70;56.90
69595;DHT22;56800;52.142;5.364;2023-07-08T08:25:49;23.80;57.70
69595;DHT22;56800;52.142;5.364;2023-07-08T08:28:17;23.90;56.70
69595;DHT22;56800;52.142;5.364;2023-07-08T08:30:50;24.10;56.70
69595;DHT22;56800;52.142;5.364;2023-07-08T08:33:18;24.20;55.60
69595;DHT22;56800;52.142;5.364;2023-07-08T08:35:45;24.30;55.30
69595;DHT22;56800;52.142;5.364;2023-07-08T08:38:12;24.30;54.70
69595;DHT22;56800;52.142;5.364;2023-07-08T08:40:41;24.50;54.90
69595;DHT22;56800;52.142;5.364;2023-07-08T08:43:35;24.50;55.30
69595;DHT22;56800;52.142;5.364;2023-07-08T08:46:13;24.70;54.50
69595;DHT22;56800;52.142;5.364;2023-07-08T08:49:01;24.80;54.00
69595;DHT22;56800;52.142;5.364;2023-07-08T08:51:31;25.00;53.20
69595;DHT22;56800;52.142;5.364;2023-07-08T08:53:59;25.10;53.90
69595;DHT22;56800;52.142;5.364;2023-07-08T08:56:29;25.30;53.20
69595;DHT22;56800;52.142;5.364;2023-07-08T09:01:38;25.50;52.30
69595;DHT22;56800;52.142;5.364;2023-07-08T09:04:10;25.60;52.00
69595;DHT22;56800;52.142;5.364;2023-07-08T09:06:38;25.70;51.90
69595;DHT22;56800;52.142;5.364;2023-07-08T09:09:30;25.70;51.40
69595;DHT22;56800;52.142;5.364;2023-07-08T09:12:04;25.90;50.80
69595;DHT22;56800;52.142;5.364;2023-07-08T09:14:34;26.00;51.10
69595;DHT22;56800;52.142;5.364;2023-07-08T09:20:24;26.20;50.70
69595;DHT22;56800;52.142;5.364;2023-07-08T09:25:31;26.50;51.00
69595;DHT22;56800;52.142;5.364;2023-07-08T09:27:59;26.50;49.30
69595;DHT22;56800;52.142;5.364;2023-07-08T09:30:26;26.60;49.20
69595;DHT22;56800;52.142;5.364;2023-07-08T09:32:55;26.70;48.10
69595;DHT22;56800;52.142;5.364;2023-07-08T09:35:24;26.80;47.70
69595;DHT22;56800;52.142;5.364;2023-07-08T09:37:52;26.90;48.10
69595;DHT22;56800;52.142;5.364;2023-07-08T09:40:21;27.10;48.60
69595;DHT22;56800;52.142;5.364;2023-07-08T09:42:51;27.20;48.10
69595;DHT22;56800;52.142;5.364;2023-07-08T09:45:22;27.30;48.00
69595;DHT22;56800;52.142;5.364;2023-07-08T09:47:54;27.40;47.20
69595;DHT22;56800;52.142;5.364;2023-07-08T09:50:25;27.60;48.70
69595;DHT22;56800;52.142;5.364;2023-07-08T09:52:56;27.70;48.00
69595;DHT22;56800;52.142;5.364;2023-07-08T09:55:31;27.80;46.80
69595;DHT22;56800;52.142;5.364;2023-07-08T09:57:59;27.90;46.90
69595;DHT22;56800;52.142;5.364;2023-07-08T10:00:38;28.10;48.00
69595;DHT22;56800;52.142;5.364;2023-07-08T10:05:42;28.20;45.80
69595;DHT22;56800;52.142;5.364;2023-07-08T10:08:17;28.40;46.00
69595;DHT22;56800;52.142;5.364;2023-07-08T10:10:46;28.60;44.30
69595;DHT22;56800;52.142;5.364;2023-07-08T10:13:21;28.60;44.50
69595;DHT22;56800;52.142;5.364;2023-07-08T10:16:12;28.80;44.20
69595;DHT22;56800;52.142;5.364;2023-07-08T10:18:39;28.90;43.80
69595;DHT22;56800;52.142;5.364;2023-07-08T10:26:30;29.30;42.70
69595;DHT22;56800;52.142;5.364;2023-07-08T10:29:24;29.40;42.60
69595;DHT22;56800;52.142;5.364;2023-07-08T10:34:42;29.70;41.20
69595;DHT22;56800;52.142;5.364;2023-07-08T10:42:47;30.10;40.60
69595;DHT22;56800;52.142;5.364;2023-07-08T10:46:24;30.20;40.00
69595;DHT22;56800;52.142;5.364;2023-07-08T10:48:51;30.30;39.80
69595;DHT22;56800;52.142;5.364;2023-07-08T10:57:26;30.80;39.80
69595;DHT22;56800;52.142;5.364;2023-07-08T11:07:51;31.20;39.40
69595;DHT22;56800;52.142;5.364;2023-07-08T11:10:25;31.20;39.40
69595;DHT22;56800;52.142;5.364;2023-07-08T11:21:02;31.40;37.10
69595;DHT22;56800;52.142;5.364;2023-07-08T11:24:05;31.50;36.90
69595;DHT22;56800;52.142;5.364;2023-07-08T11:29:20;31.60;36.70
69595;DHT22;56800;52.142;5.364;2023-07-08T11:31:49;31.70;37.30
69595;DHT22;56800;52.142;5.364;2023-07-08T11:34:18;31.80;37.10
69595;DHT22;56800;52.142;5.364;2023-07-08T11:36:47;31.80;37.30
69595;DHT22;56800;52.142;5.364;2023-07-08T11:39:52;31.90;36.60
69595;DHT22;56800;52.142;5.364;2023-07-08T11:42:24;32.00;36.50
69595;DHT22;56800;52.142;5.364;2023-07-08T11:44:55;32.00;36.70
69595;DHT22;56800;52.142;5.364;2023-07-08T11:47:38;32.00;36.80
69595;DHT22;56800;52.142;5.364;2023-07-08T11:50:23;32.10;37.20
69595;DHT22;56800;52.142;5.364;2023-07-08T11:52:54;32.10;36.10
69595;DHT22;56800;52.142;5.364;2023-07-08T11:55:24;32.20;36.70
69595;DHT22;56800;52.142;5.364;2023-07-08T11:57:56;32.20;35.50
69595;DHT22;56800;52.142;5.364;2023-07-08T12:00:26;32.30;35.10
69595;DHT22;56800;52.142;5.364;2023-07-08T12:02:58;32.30;35.40
69595;DHT22;56800;52.142;5.364;2023-07-08T12:07:57;32.30;35.70
69595;DHT22;56800;52.142;5.364;2023-07-08T12:10:50;32.30;35.20
69595;DHT22;56800;52.142;5.364;2023-07-08T12:13:23;32.40;35.20
69595;DHT22;56800;52.142;5.364;2023-07-08T12:15:51;32.50;35.40
69595;DHT22;56800;52.142;5.364;2023-07-08T12:18:36;32.50;35.20
69595;DHT22;56800;52.142;5.364;2023-07-08T12:21:07;32.50;35.10
69595;DHT22;56800;52.142;5.364;2023-07-08T12:23:34;32.50;34.70
69595;DHT22;56800;52.142;5.364;2023-07-08T12:26:01;32.60;35.70
69595;DHT22;56800;52.142;5.364;2023-07-08T12:28:29;32.60;36.20
69595;DHT22;56800;52.142;5.364;2023-07-08T12:30:56;32.60;35.20
69595;DHT22;56800;52.142;5.364;2023-07-08T12:33:32;32.60;35.00
69595;DHT22;56800;52.142;5.364;2023-07-08T12:36:01;32.60;34.70
69595;DHT22;56800;52.142;5.364;2023-07-08T12:38:33;32.60;34.10
69595;DHT22;56800;52.142;5.364;2023-07-08T12:41:08;32.60;34.30
69595;DHT22;56800;52.142;5.364;2023-07-08T12:43:36;32.60;34.40
69595;DHT22;56800;52.142;5.364;2023-07-08T12:46:03;32.60;34.70
69595;DHT22;56800;52.142;5.364;2023-07-08T12:48:34;32.70;33.60
69595;DHT22;56800;52.142;5.364;2023-07-08T12:51:02;32.60;32.70
69595;DHT22;56800;52.142;5.364;2023-07-08T12:53:30;32.70;32.80
69595;DHT22;56800;52.142;5.364;2023-07-08T12:55:59;32.60;33.40
69595;DHT22;56800;52.142;5.364;2023-07-08T12:58:32;32.60;33.70
69595;DHT22;56800;52.142;5.364;2023-07-08T13:01:02;32.70;33.60
69595;DHT22;56800;52.142;5.364;2023-07-08T13:03:35;32.80;33.80
69595;DHT22;56800;52.142;5.364;2023-07-08T13:06:03;32.90;32.90
69595;DHT22;56800;52.142;5.364;2023-07-08T13:08:35;32.90;30.80
69595;DHT22;56800;52.142;5.364;2023-07-08T13:11:03;33.00;30.00
69595;DHT22;56800;52.142;5.364;2023-07-08T13:13:35;33.10;31.20
69595;DHT22;56800;52.142;5.364;2023-07-08T13:16:04;33.20;30.90
69595;DHT22;56800;52.142;5.364;2023-07-08T13:18:36;33.40;31.20
69595;DHT22;56800;52.142;5.364;2023-07-08T13:21:06;33.50;31.40
69595;DHT22;56800;52.142;5.364;2023-07-08T13:23:34;33.70;32.60
69595;DHT22;56800;52.142;5.364;2023-07-08T13:26:11;33.80;31.80
69595;DHT22;56800;52.142;5.364;2023-07-08T13:28:39;34.00;31.70
69595;DHT22;56800;52.142;5.364;2023-07-08T13:33:49;34.30;30.90
69595;DHT22;56800;52.142;5.364;2023-07-08T13:36:18;34.50;29.50
69595;DHT22;56800;52.142;5.364;2023-07-08T13:38:46;34.70;29.30
69595;DHT22;56800;52.142;5.364;2023-07-08T13:41:19;34.80;29.00
69595;DHT22;56800;52.142;5.364;2023-07-08T13:43:48;35.00;28.90
69595;DHT22;56800;52.142;5.364;2023-07-08T13:46:34;35.10;28.80
69595;DHT22;56800;52.142;5.364;2023-07-08T13:49:09;35.30;28.30
69595;DHT22;56800;52.142;5.364;2023-07-08T13:51:37;35.50;28.30
69595;DHT22;56800;52.142;5.364;2023-07-08T13:54:19;35.60;28.40
69595;DHT22;56800;52.142;5.364;2023-07-08T13:56:47;35.80;27.60
69595;DHT22;56800;52.142;5.364;2023-07-08T13:59:22;35.90;27.80
69595;DHT22;56800;52.142;5.364;2023-07-08T14:01:52;36.10;27.50
69595;DHT22;56800;52.142;5.364;2023-07-08T14:04:30;36.10;27.70
69595;DHT22;56800;52.142;5.364;2023-07-08T14:06:58;36.20;27.70
69595;DHT22;56800;52.142;5.364;2023-07-08T14:09:25;36.40;27.60
69595;DHT22;56800;52.142;5.364;2023-07-08T14:11:52;36.50;27.50
69595;DHT22;56800;52.142;5.364;2023-07-08T14:14:19;36.40;26.60
69595;DHT22;56800;52.142;5.364;2023-07-08T14:16:51;36.50;27.00
69595;DHT22;56800;52.142;5.364;2023-07-08T14:19:25;36.60;27.50
69595;DHT22;56800;52.142;5.364;2023-07-08T14:21:55;36.80;27.20
69595;DHT22;56800;52.142;5.364;2023-07-08T14:24:22;36.80;27.50
69595;DHT22;56800;52.142;5.364;2023-07-08T14:26:49;36.90;27.30
69595;DHT22;56800;52.142;5.364;2023-07-08T14:29:16;37.00;26.80
69595;DHT22;56800;52.142;5.364;2023-07-08T14:31:43;37.00;26.90
69595;DHT22;56800;52.142;5.364;2023-07-08T14:34:19;36.90;26.80
69595;DHT22;56800;52.142;5.364;2023-07-08T14:36:48;37.00;26.30
69595;DHT22;56800;52.142;5.364;2023-07-08T14:39:16;36.90;26.60
69595;DHT22;56800;52.142;5.364;2023-07-08T14:41:45;36.70;26.70
69595;DHT22;56800;52.142;5.364;2023-07-08T14:44:24;36.70;27.10
69595;DHT22;56800;52.142;5.364;2023-07-08T14:46:52;36.60;27.40
69595;DHT22;56800;52.142;5.364;2023-07-08T14:49:21;36.50;27.50
69595;DHT22;56800;52.142;5.364;2023-07-08T14:51:48;36.40;27.20
69595;DHT22;56800;52.142;5.364;2023-07-08T14:54:15;36.30;28.00
69595;DHT22;56800;52.142;5.364;2023-07-08T14:56:42;36.20;28.20
69595;DHT22;56800;52.142;5.364;2023-07-08T14:59:15;36.10;28.20
69595;DHT22;56800;52.142;5.364;2023-07-08T15:01:44;36.00;28.40
69595;DHT22;56800;52.142;5.364;2023-07-08T15:04:12;35.90;28.70
69595;DHT22;56800;52.142;5.364;2023-07-08T15:06:41;35.80;29.40
69595;DHT22;56800;52.142;5.364;2023-07-08T15:09:08;35.60;29.20
69595;DHT22;56800;52.142;5.364;2023-07-08T15:11:37;35.50;29.20
69595;DHT22;56800;52.142;5.364;2023-07-08T15:14:09;35.40;29.40
69595;DHT22;56800;52.142;5.364;2023-07-08T15:16:38;35.30;30.40
69595;DHT22;56800;52.142;5.364;2023-07-08T15:19:10;35.30;31.00
69595;DHT22;56800;52.142;5.364;2023-07-08T15:21:38;35.20;31.50
69595;DHT22;56800;52.142;5.364;2023-07-08T15:24:10;35.20;31.20
69595;DHT22;56800;52.142;5.364;2023-07-08T15:26:43;35.20;31.50
69595;DHT22;56800;52.142;5.364;2023-07-08T15:29:19;35.20;31.30
69595;DHT22;56800;52.142;5.364;2023-07-08T15:31:47;35.30;31.70
69595;DHT22;56800;52.142;5.364;2023-07-08T15:34:16;35.30;31.70
69595;DHT22;56800;52.142;5.364;2023-07-08T15:36:43;35.30;32.60
69595;DHT22;56800;52.142;5.364;2023-07-08T15:39:10;35.40;32.00
69595;DHT22;56800;52.142;5.364;2023-07-08T15:41:37;35.40;33.20
69595;DHT22;56800;52.142;5.364;2023-07-08T15:44:13;35.40;31.90
69595;DHT22;56800;52.142;5.364;2023-07-08T15:46:42;35.50;31.50
69595;DHT22;56800;52.142;5.364;2023-07-08T15:49:15;35.50;31.70
69595;DHT22;56800;52.142;5.364;2023-07-08T15:51:43;35.50;31.40
69595;DHT22;56800;52.142;5.364;2023-07-08T15:54:14;35.50;31.40
69595;DHT22;56800;52.142;5.364;2023-07-08T15:56:41;35.50;31.40
69595;DHT22;56800;52.142;5.364;2023-07-08T15:59:19;35.40;31.60
69595;DHT22;56800;52.142;5.364;2023-07-08T16:01:48;35.30;32.10
69595;DHT22;56800;52.142;5.364;2023-07-08T16:04:21;35.10;33.20
69595;DHT22;56800;52.142;5.364;2023-07-08T16:06:48;35.00;33.80
69595;DHT22;56800;52.142;5.364;2023-07-08T16:09:15;34.80;34.20
69595;DHT22;56800;52.142;5.364;2023-07-08T16:11:42;34.70;34.80
69595;DHT22;56800;52.142;5.364;2023-07-08T16:14:14;34.60;34.50
69595;DHT22;56800;52.142;5.364;2023-07-08T16:16:42;34.50;34.70
69595;DHT22;56800;52.142;5.364;2023-07-08T16:19:13;34.40;35.60
69595;DHT22;56800;52.142;5.364;2023-07-08T16:21:41;34.20;35.70
69595;DHT22;56800;52.142;5.364;2023-07-08T16:24:08;34.10;36.20
69595;DHT22;56800;52.142;5.364;2023-07-08T16:26:35;34.00;36.40
69595;DHT22;56800;52.142;5.364;2023-07-08T16:29:02;33.90;36.80
69595;DHT22;56800;52.142;5.364;2023-07-08T16:31:29;33.80;37.00
69595;DHT22;56800;52.142;5.364;2023-07-08T16:33:58;33.70;36.80
69595;DHT22;56800;52.142;5.364;2023-07-08T16:36:27;33.70;36.70
69595;DHT22;56800;52.142;5.364;2023-07-08T16:38:54;33.70;37.00
69595;DHT22;56800;52.142;5.364;2023-07-08T16:41:25;33.60;37.40
69595;DHT22;56800;52.142;5.364;2023-07-08T16:43:52;33.50;38.60
69595;DHT22;56800;52.142;5.364;2023-07-08T16:46:23;33.40;37.50
69595;DHT22;56800;52.142;5.364;2023-07-08T16:48:50;33.30;37.50
69595;DHT22;56800;52.142;5.364;2023-07-08T16:51:20;33.30;37.80